Notice: Undefined index: language in D:\xampp\htdocs\vam\index.php on line 25
Open Air Virtual

 METAR AND TAF INFORMATION
METAR FOR EGMC
ADDS - METARS form results

(1147 UTC 20 August 2019)
Data provider http://aviationweather.gov/metar/data/
 
METAR text: EGMC 201120Z 26014KT 9999 FEW048 19/06 Q1022
Conditions at: EGMC (SOUTHEND-ON-SEA , GB) observed 1120 UTC 20 August 2019
Temperature: 19.0°C (66°F)
Dewpoint: 6.0°C (43°F) [RH = 43%]
Pressure (altimeter): 30.18 inches Hg (1022.0 mb)
Winds: from the W (260 degrees) at 16 MPH (14 knots; 7.2 m/s)
Visibility: 6 or more miles (10+ km)
Ceiling: at least 12,000 feet AGL
Clouds: few clouds at 4800 feet AGL
Weather: no significant weather observed at this time

METAR text: EGMC 201050Z 27013KT 240V310 9999 FEW043 18/07 Q1022
Conditions at: EGMC (SOUTHEND-ON-SEA , GB) observed 1050 UTC 20 August 2019
Temperature: 18.0°C (64°F)
Dewpoint: 7.0°C (45°F) [RH = 49%]
Pressure (altimeter): 30.18 inches Hg (1022.0 mb)
Winds: from the W (270 degrees) at 15 MPH (13 knots; 6.7 m/s)
Visibility: 6 or more miles (10+ km)
Ceiling: at least 12,000 feet AGL
Clouds: few clouds at 4300 feet AGL
Weather: no significant weather observed at this time

Forecast for: EGMC (SOUTHEND-ON-SEA , GB)
Text: TAF EGMC 201102Z 2012/2021 26010KT 9999 FEW035
Forecast period: 1200 to 2100 UTC 20 August 2019
Forecast type: FROM: standard forecast or significant change
Winds: from the W (260 degrees) at 12 MPH (10 knots; 5.1 m/s)
Visibility: 6 or more miles 10+ km)
Ceiling: at least 12,000 feet AGL
Clouds: few clouds at 3500 feet AGL
Weather: no significant weather forecast for this period

 AIRPORT MAP

 RUNWAY INFORMATION
Runway 06 Runway length 5023 ft Runway width 121 ft
Runway elevation 49 ft Runway displaced threshold 571 ft Runway heading 54
Runway 24 Runway length 5023 ft Runway width 121 ft
Runway elevation 37 ft Runway displaced threshold 479 ft Runway heading 234

 AIRPORT FREQUENCIES
Type APP Name APP Frequency 130.775 MHZ
Type ATIS Name ATIS Frequency 121.8 MHZ
Type RDR Name RDR Frequency 130.775 MHZ
Type TWR Name TWR Frequency 127.725 MHZ

 AIRPORT NEAR NAVIGATION AIDS



Powered by Virtual Airlines Manager [v2.6.2]